Grantsboro, North Carolina
Current Conditions -  °F | °C
As of 10:54 AM on Thursday 18 Dec 2014 (Local Time) from KEWN Reporting Station
Clear Clear  
Wind Chill: 45°   Ceiling: Unl
Heat Index: 48°   Visibility: 10mi
Dew Point: 32°   Wind: 7mph
Humidity: 54%   Direction: 40°NE
Pressure: 30.19"   Gusts: NA
Location:  35.14°N, 76.84°W
Report Text: KEWN 181554Z 04006KT 10SM CLR 09/00 A3019 RMK AO2 SLP223 T00890000
Loading
Personal Weather Stations






























Interactive Weather Map New forecast layout! Learn more

10-Day Weather Forecast

Advertisements
Track Severe Weather on mobile